Terminal Aerodrome Forecast
Issued by NWS

Home | Current Version | Previous Version | Text Only | Print | Product List | Glossary On
Versions: 1 2 3 4 5 6 7 8 9 10 11 12 13 14
367
FTPA31 PHFO 191143
TAFHNY
TAF
PHNY 191143Z 1912/2012 05013KT P6SM FEW025 SCT040
     FM191900 06024G30KT P6SM FEW025 SCT040
     FM192000 05016G26KT P6SM FEW025 SCT040=

USA.gov is the U.S. government's official web portal to all federal, state and local government web resources and services.